sensor_id;sensor_type;location;lat;lon;timestamp;P1;durP1;ratioP1;P2;durP2;ratioP2
21591;SDS011;10958;50.892;3.992;2023-06-22T00:00:49;8.00;;;5.05;;
21591;SDS011;10958;50.892;3.992;2023-06-22T00:03:15;6.30;;;4.80;;
21591;SDS011;10958;50.892;3.992;2023-06-22T00:05:45;6.50;;;5.00;;
21591;SDS011;10958;50.892;3.992;2023-06-22T00:08:12;8.20;;;5.70;;
21591;SDS011;10958;50.892;3.992;2023-06-22T00:10:38;6.63;;;5.13;;
21591;SDS011;10958;50.892;3.992;2023-06-22T00:13:05;8.30;;;5.15;;
21591;SDS011;10958;50.892;3.992;2023-06-22T00:15:33;7.82;;;5.15;;
21591;SDS011;10958;50.892;3.992;2023-06-22T00:17:59;6.85;;;5.05;;
21591;SDS011;10958;50.892;3.992;2023-06-22T00:20:25;7.25;;;4.78;;
21591;SDS011;10958;50.892;3.992;2023-06-22T00:22:55;10.48;;;5.00;;
21591;SDS011;10958;50.892;3.992;2023-06-22T00:25:21;6.05;;;4.38;;
21591;SDS011;10958;50.892;3.992;2023-06-22T00:27:47;9.68;;;5.03;;
21591;SDS011;10958;50.892;3.992;2023-06-22T00:30:15;9.35;;;4.78;;
21591;SDS011;10958;50.892;3.992;2023-06-22T00:32:45;9.25;;;5.10;;
21591;SDS011;10958;50.892;3.992;2023-06-22T00:35:14;7.97;;;4.75;;
21591;SDS011;10958;50.892;3.992;2023-06-22T00:37:40;10.18;;;5.32;;
21591;SDS011;10958;50.892;3.992;2023-06-22T00:40:09;7.95;;;5.35;;
21591;SDS011;10958;50.892;3.992;2023-06-22T00:42:39;10.15;;;5.63;;
21591;SDS011;10958;50.892;3.992;2023-06-22T00:45:06;8.57;;;5.75;;
21591;SDS011;10958;50.892;3.992;2023-06-22T00:47:33;7.32;;;5.88;;
21591;SDS011;10958;50.892;3.992;2023-06-22T00:50:00;10.00;;;5.67;;
21591;SDS011;10958;50.892;3.992;2023-06-22T00:52:27;7.50;;;5.38;;
21591;SDS011;10958;50.892;3.992;2023-06-22T00:54:56;9.93;;;6.03;;
21591;SDS011;10958;50.892;3.992;2023-06-22T00:57:24;9.25;;;5.70;;
21591;SDS011;10958;50.892;3.992;2023-06-22T00:59:53;8.10;;;5.65;;
21591;SDS011;10958;50.892;3.992;2023-06-22T01:02:18;11.27;;;5.78;;
21591;SDS011;10958;50.892;3.992;2023-06-22T01:04:44;11.02;;;5.88;;
21591;SDS011;10958;50.892;3.992;2023-06-22T01:14:06;9.45;;;6.50;;
21591;SDS011;10958;50.892;3.992;2023-06-22T01:16:48;10.35;;;6.70;;
21591;SDS011;10958;50.892;3.992;2023-06-22T01:22:00;8.45;;;6.13;;
21591;SDS011;10958;50.892;3.992;2023-06-22T01:24:41;12.18;;;6.90;;
21591;SDS011;10958;50.892;3.992;2023-06-22T01:29:47;10.60;;;7.13;;
21591;SDS011;10958;50.892;3.992;2023-06-22T01:32:16;14.00;;;6.05;;
21591;SDS011;10958;50.892;3.992;2023-06-22T01:34:43;10.18;;;6.65;;
21591;SDS011;10958;50.892;3.992;2023-06-22T01:37:11;8.75;;;6.63;;
21591;SDS011;10958;50.892;3.992;2023-06-22T01:39:37;12.77;;;6.65;;
21591;SDS011;10958;50.892;3.992;2023-06-22T01:42:03;9.23;;;6.60;;
21591;SDS011;10958;50.892;3.992;2023-06-22T01:44:30;10.93;;;7.20;;
21591;SDS011;10958;50.892;3.992;2023-06-22T01:46:57;13.25;;;6.57;;
21591;SDS011;10958;50.892;3.992;2023-06-22T01:49:23;9.30;;;6.70;;
21591;SDS011;10958;50.892;3.992;2023-06-22T01:51:49;10.90;;;7.47;;
21591;SDS011;10958;50.892;3.992;2023-06-22T01:54:16;13.20;;;7.78;;
21591;SDS011;10958;50.892;3.992;2023-06-22T01:56:41;11.45;;;7.50;;
21591;SDS011;10958;50.892;3.992;2023-06-22T01:59:12;10.43;;;7.45;;
21591;SDS011;10958;50.892;3.992;2023-06-22T02:01:44;11.80;;;6.78;;
21591;SDS011;10958;50.892;3.992;2023-06-22T02:04:20;10.23;;;6.88;;
21591;SDS011;10958;50.892;3.992;2023-06-22T02:06:51;13.98;;;8.35;;
21591;SDS011;10958;50.892;3.992;2023-06-22T02:09:22;12.07;;;8.55;;
21591;SDS011;10958;50.892;3.992;2023-06-22T02:11:49;11.73;;;8.57;;
21591;SDS011;10958;50.892;3.992;2023-06-22T02:14:20;10.57;;;7.45;;
21591;SDS011;10958;50.892;3.992;2023-06-22T02:16:47;11.02;;;8.13;;
21591;SDS011;10958;50.892;3.992;2023-06-22T02:19:17;12.23;;;8.32;;
21591;SDS011;10958;50.892;3.992;2023-06-22T02:21:48;11.50;;;7.95;;
21591;SDS011;10958;50.892;3.992;2023-06-22T02:24:17;11.82;;;8.27;;
21591;SDS011;10958;50.892;3.992;2023-06-22T02:26:43;12.20;;;8.23;;
21591;SDS011;10958;50.892;3.992;2023-06-22T02:29:10;12.07;;;8.75;;
21591;SDS011;10958;50.892;3.992;2023-06-22T02:31:36;11.90;;;8.50;;
21591;SDS011;10958;50.892;3.992;2023-06-22T02:34:02;11.98;;;8.65;;
21591;SDS011;10958;50.892;3.992;2023-06-22T02:36:28;11.00;;;8.57;;
21591;SDS011;10958;50.892;3.992;2023-06-22T02:38:55;10.23;;;8.05;;
21591;SDS011;10958;50.892;3.992;2023-06-22T02:41:24;10.60;;;7.68;;
21591;SDS011;10958;50.892;3.992;2023-06-22T02:43:50;11.35;;;8.07;;
21591;SDS011;10958;50.892;3.992;2023-06-22T02:46:16;12.95;;;8.15;;
21591;SDS011;10958;50.892;3.992;2023-06-22T02:48:42;10.35;;;7.68;;
21591;SDS011;10958;50.892;3.992;2023-06-22T02:51:11;11.45;;;7.88;;
21591;SDS011;10958;50.892;3.992;2023-06-22T02:53:39;13.90;;;8.27;;
21591;SDS011;10958;50.892;3.992;2023-06-22T02:56:04;11.73;;;8.65;;
21591;SDS011;10958;50.892;3.992;2023-06-22T02:58:30;12.25;;;7.70;;
21591;SDS011;10958;50.892;3.992;2023-06-22T03:01:03;11.27;;;8.32;;
21591;SDS011;10958;50.892;3.992;2023-06-22T03:03:30;9.82;;;7.55;;
21591;SDS011;10958;50.892;3.992;2023-06-22T03:05:58;9.93;;;8.05;;
21591;SDS011;10958;50.892;3.992;2023-06-22T03:08:25;10.48;;;7.88;;
21591;SDS011;10958;50.892;3.992;2023-06-22T03:10:51;13.32;;;7.68;;
21591;SDS011;10958;50.892;3.992;2023-06-22T03:13:17;14.50;;;8.65;;
21591;SDS011;10958;50.892;3.992;2023-06-22T03:15:42;12.35;;;8.18;;
21591;SDS011;10958;50.892;3.992;2023-06-22T03:18:08;10.68;;;8.20;;
21591;SDS011;10958;50.892;3.992;2023-06-22T03:20:34;13.82;;;7.88;;
21591;SDS011;10958;50.892;3.992;2023-06-22T03:22:59;12.65;;;8.93;;
21591;SDS011;10958;50.892;3.992;2023-06-22T03:25:25;14.52;;;9.27;;
21591;SDS011;10958;50.892;3.992;2023-06-22T03:27:54;13.43;;;8.73;;
21591;SDS011;10958;50.892;3.992;2023-06-22T03:30:22;15.52;;;9.02;;
21591;SDS011;10958;50.892;3.992;2023-06-22T03:32:48;12.57;;;8.65;;
21591;SDS011;10958;50.892;3.992;2023-06-22T03:35:14;12.18;;;8.85;;
21591;SDS011;10958;50.892;3.992;2023-06-22T03:37:41;13.70;;;9.88;;
21591;SDS011;10958;50.892;3.992;2023-06-22T03:40:06;12.23;;;9.15;;
21591;SDS011;10958;50.892;3.992;2023-06-22T03:45:01;14.82;;;9.20;;
21591;SDS011;10958;50.892;3.992;2023-06-22T03:47:28;15.07;;;8.95;;
21591;SDS011;10958;50.892;3.992;2023-06-22T03:49:56;11.43;;;8.10;;
21591;SDS011;10958;50.892;3.992;2023-06-22T03:52:22;14.80;;;9.00;;
21591;SDS011;10958;50.892;3.992;2023-06-22T03:54:48;12.63;;;8.55;;
21591;SDS011;10958;50.892;3.992;2023-06-22T03:57:14;11.30;;;9.23;;
21591;SDS011;10958;50.892;3.992;2023-06-22T03:59:40;11.00;;;8.00;;
21591;SDS011;10958;50.892;3.992;2023-06-22T04:02:05;11.18;;;9.07;;
21591;SDS011;10958;50.892;3.992;2023-06-22T04:04:34;12.80;;;8.45;;
21591;SDS011;10958;50.892;3.992;2023-06-22T04:07:04;10.85;;;7.97;;
21591;SDS011;10958;50.892;3.992;2023-06-22T04:09:30;11.80;;;8.60;;
21591;SDS011;10958;50.892;3.992;2023-06-22T04:11:56;10.15;;;7.78;;
21591;SDS011;10958;50.892;3.992;2023-06-22T04:14:22;12.23;;;8.20;;
21591;SDS011;10958;50.892;3.992;2023-06-22T04:16:47;10.35;;;8.07;;
21591;SDS011;10958;50.892;3.992;2023-06-22T04:19:13;11.40;;;8.07;;
21591;SDS011;10958;50.892;3.992;2023-06-22T04:21:41;11.48;;;8.20;;
21591;SDS011;10958;50.892;3.992;2023-06-22T04:24:08;11.73;;;8.13;;
21591;SDS011;10958;50.892;3.992;2023-06-22T04:26:33;10.07;;;7.93;;
21591;SDS011;10958;50.892;3.992;2023-06-22T04:29:04;10.65;;;7.80;;
21591;SDS011;10958;50.892;3.992;2023-06-22T04:31:33;10.80;;;8.10;;
21591;SDS011;10958;50.892;3.992;2023-06-22T04:34:01;10.43;;;8.07;;
21591;SDS011;10958;50.892;3.992;2023-06-22T04:36:34;12.82;;;7.90;;
21591;SDS011;10958;50.892;3.992;2023-06-22T04:39:11;10.85;;;7.65;;
21591;SDS011;10958;50.892;3.992;2023-06-22T04:41:38;10.20;;;7.10;;
21591;SDS011;10958;50.892;3.992;2023-06-22T04:46:39;12.00;;;7.45;;
21591;SDS011;10958;50.892;3.992;2023-06-22T04:49:06;13.30;;;7.75;;
21591;SDS011;10958;50.892;3.992;2023-06-22T04:51:39;11.38;;;8.00;;
21591;SDS011;10958;50.892;3.992;2023-06-22T04:54:06;11.43;;;7.60;;
21591;SDS011;10958;50.892;3.992;2023-06-22T04:56:35;9.63;;;7.50;;
21591;SDS011;10958;50.892;3.992;2023-06-22T04:59:01;13.10;;;7.67;;
21591;SDS011;10958;50.892;3.992;2023-06-22T05:01:28;10.48;;;7.43;;
21591;SDS011;10958;50.892;3.992;2023-06-22T05:03:56;11.73;;;7.75;;
21591;SDS011;10958;50.892;3.992;2023-06-22T05:06:22;11.55;;;8.35;;
21591;SDS011;10958;50.892;3.992;2023-06-22T05:09:08;10.48;;;7.68;;
21591;SDS011;10958;50.892;3.992;2023-06-22T05:11:39;14.10;;;8.02;;
21591;SDS011;10958;50.892;3.992;2023-06-22T05:14:05;11.73;;;8.07;;
21591;SDS011;10958;50.892;3.992;2023-06-22T05:16:32;11.00;;;7.68;;
21591;SDS011;10958;50.892;3.992;2023-06-22T05:18:58;10.88;;;7.75;;
21591;SDS011;10958;50.892;3.992;2023-06-22T05:21:28;12.05;;;8.30;;
21591;SDS011;10958;50.892;3.992;2023-06-22T05:23:54;11.52;;;8.23;;
21591;SDS011;10958;50.892;3.992;2023-06-22T05:26:21;10.88;;;7.75;;
21591;SDS011;10958;50.892;3.992;2023-06-22T05:28:49;11.18;;;7.78;;
21591;SDS011;10958;50.892;3.992;2023-06-22T05:31:16;13.10;;;8.13;;
21591;SDS011;10958;50.892;3.992;2023-06-22T05:33:43;12.52;;;7.75;;
21591;SDS011;10958;50.892;3.992;2023-06-22T05:36:12;12.32;;;8.40;;
21591;SDS011;10958;50.892;3.992;2023-06-22T05:38:39;18.58;;;8.85;;
21591;SDS011;10958;50.892;3.992;2023-06-22T05:41:06;11.25;;;7.43;;
21591;SDS011;10958;50.892;3.992;2023-06-22T05:43:33;12.10;;;8.05;;
21591;SDS011;10958;50.892;3.992;2023-06-22T05:45:59;13.18;;;8.23;;
21591;SDS011;10958;50.892;3.992;2023-06-22T05:48:26;12.68;;;7.90;;
21591;SDS011;10958;50.892;3.992;2023-06-22T05:50:52;12.15;;;8.65;;
21591;SDS011;10958;50.892;3.992;2023-06-22T05:53:18;13.80;;;8.80;;
21591;SDS011;10958;50.892;3.992;2023-06-22T05:55:46;12.10;;;8.15;;
21591;SDS011;10958;50.892;3.992;2023-06-22T05:58:12;14.82;;;8.18;;
21591;SDS011;10958;50.892;3.992;2023-06-22T06:00:41;11.75;;;8.23;;
21591;SDS011;10958;50.892;3.992;2023-06-22T06:03:08;11.77;;;8.65;;
21591;SDS011;10958;50.892;3.992;2023-06-22T06:05:42;11.70;;;8.15;;
21591;SDS011;10958;50.892;3.992;2023-06-22T06:08:09;13.60;;;8.27;;
21591;SDS011;10958;50.892;3.992;2023-06-22T06:10:36;16.35;;;10.25;;
21591;SDS011;10958;50.892;3.992;2023-06-22T06:13:02;13.05;;;9.30;;
21591;SDS011;10958;50.892;3.992;2023-06-22T06:15:29;14.65;;;9.80;;
21591;SDS011;10958;50.892;3.992;2023-06-22T06:17:58;14.32;;;9.85;;
21591;SDS011;10958;50.892;3.992;2023-06-22T06:20:25;19.02;;;10.10;;
21591;SDS011;10958;50.892;3.992;2023-06-22T06:22:56;14.15;;;10.38;;
21591;SDS011;10958;50.892;3.992;2023-06-22T06:25:22;12.27;;;10.25;;
21591;SDS011;10958;50.892;3.992;2023-06-22T06:27:49;11.98;;;10.02;;
21591;SDS011;10958;50.892;3.992;2023-06-22T06:30:17;15.70;;;10.90;;
21591;SDS011;10958;50.892;3.992;2023-06-22T06:32:44;17.40;;;11.15;;
21591;SDS011;10958;50.892;3.992;2023-06-22T06:35:13;15.40;;;10.73;;
21591;SDS011;10958;50.892;3.992;2023-06-22T06:37:41;14.27;;;11.10;;
21591;SDS011;10958;50.892;3.992;2023-06-22T06:40:09;15.88;;;11.25;;
21591;SDS011;10958;50.892;3.992;2023-06-22T06:42:38;13.65;;;10.80;;
21591;SDS011;10958;50.892;3.992;2023-06-22T06:45:10;18.08;;;11.32;;
21591;SDS011;10958;50.892;3.992;2023-06-22T06:47:41;15.13;;;11.57;;
21591;SDS011;10958;50.892;3.992;2023-06-22T06:50:07;15.52;;;11.75;;
21591;SDS011;10958;50.892;3.992;2023-06-22T06:52:34;15.18;;;11.55;;
21591;SDS011;10958;50.892;3.992;2023-06-22T06:55:00;14.73;;;11.75;;
21591;SDS011;10958;50.892;3.992;2023-06-22T06:57:26;16.63;;;12.07;;
21591;SDS011;10958;50.892;3.992;2023-06-22T06:59:54;14.10;;;11.70;;
21591;SDS011;10958;50.892;3.992;2023-06-22T07:02:20;16.77;;;11.80;;
21591;SDS011;10958;50.892;3.992;2023-06-22T07:04:46;16.67;;;11.40;;
21591;SDS011;10958;50.892;3.992;2023-06-22T07:07:13;18.17;;;11.07;;
21591;SDS011;10958;50.892;3.992;2023-06-22T07:09:38;19.70;;;11.13;;
21591;SDS011;10958;50.892;3.992;2023-06-22T07:12:05;18.17;;;11.65;;
21591;SDS011;10958;50.892;3.992;2023-06-22T07:14:33;18.15;;;11.02;;
21591;SDS011;10958;50.892;3.992;2023-06-22T07:16:59;16.02;;;11.52;;
21591;SDS011;10958;50.892;3.992;2023-06-22T07:19:25;17.88;;;11.38;;
21591;SDS011;10958;50.892;3.992;2023-06-22T07:21:53;14.07;;;10.80;;
21591;SDS011;10958;50.892;3.992;2023-06-22T07:24:22;15.75;;;12.65;;
21591;SDS011;10958;50.892;3.992;2023-06-22T07:26:49;16.42;;;12.35;;
21591;SDS011;10958;50.892;3.992;2023-06-22T07:29:19;16.25;;;11.90;;
21591;SDS011;10958;50.892;3.992;2023-06-22T07:32:05;15.90;;;12.27;;
21591;SDS011;10958;50.892;3.992;2023-06-22T07:34:31;22.70;;;12.77;;
21591;SDS011;10958;50.892;3.992;2023-06-22T07:36:58;18.67;;;12.48;;
21591;SDS011;10958;50.892;3.992;2023-06-22T07:39:24;18.38;;;12.43;;
21591;SDS011;10958;50.892;3.992;2023-06-22T07:41:51;18.13;;;12.57;;
21591;SDS011;10958;50.892;3.992;2023-06-22T07:44:19;19.77;;;13.23;;
21591;SDS011;10958;50.892;3.992;2023-06-22T07:46:46;18.73;;;13.35;;
21591;SDS011;10958;50.892;3.992;2023-06-22T07:49:12;19.00;;;12.75;;
21591;SDS011;10958;50.892;3.992;2023-06-22T07:51:37;15.98;;;12.88;;
21591;SDS011;10958;50.892;3.992;2023-06-22T07:54:03;17.77;;;12.90;;
21591;SDS011;10958;50.892;3.992;2023-06-22T07:56:29;18.92;;;13.13;;
21591;SDS011;10958;50.892;3.992;2023-06-22T07:58:54;17.00;;;13.65;;
21591;SDS011;10958;50.892;3.992;2023-06-22T08:01:23;18.88;;;13.15;;
21591;SDS011;10958;50.892;3.992;2023-06-22T08:03:48;17.90;;;13.82;;
21591;SDS011;10958;50.892;3.992;2023-06-22T08:06:15;19.08;;;14.45;;
21591;SDS011;10958;50.892;3.992;2023-06-22T08:08:41;15.82;;;13.90;;
21591;SDS011;10958;50.892;3.992;2023-06-22T08:11:07;19.08;;;14.60;;
21591;SDS011;10958;50.892;3.992;2023-06-22T08:13:33;19.70;;;13.88;;
21591;SDS011;10958;50.892;3.992;2023-06-22T08:16:02;17.83;;;14.88;;
21591;SDS011;10958;50.892;3.992;2023-06-22T08:18:28;19.52;;;15.70;;
21591;SDS011;10958;50.892;3.992;2023-06-22T08:20:54;18.27;;;14.95;;
21591;SDS011;10958;50.892;3.992;2023-06-22T08:23:24;20.27;;;15.65;;
21591;SDS011;10958;50.892;3.992;2023-06-22T08:25:50;19.13;;;15.68;;
21591;SDS011;10958;50.892;3.992;2023-06-22T08:28:16;23.60;;;15.77;;
21591;SDS011;10958;50.892;3.992;2023-06-22T08:30:42;19.50;;;16.15;;
21591;SDS011;10958;50.892;3.992;2023-06-22T08:33:10;21.05;;;15.70;;
21591;SDS011;10958;50.892;3.992;2023-06-22T08:35:38;21.02;;;15.85;;
21591;SDS011;10958;50.892;3.992;2023-06-22T08:38:03;20.23;;;16.35;;
21591;SDS011;10958;50.892;3.992;2023-06-22T08:40:29;21.13;;;15.40;;
21591;SDS011;10958;50.892;3.992;2023-06-22T08:42:55;21.65;;;16.10;;
21591;SDS011;10958;50.892;3.992;2023-06-22T08:45:22;22.75;;;15.68;;
21591;SDS011;10958;50.892;3.992;2023-06-22T08:47:47;22.55;;;17.85;;
21591;SDS011;10958;50.892;3.992;2023-06-22T08:50:13;23.90;;;17.30;;
21591;SDS011;10958;50.892;3.992;2023-06-22T08:52:44;25.37;;;17.13;;
21591;SDS011;10958;50.892;3.992;2023-06-22T08:55:10;22.55;;;17.67;;
21591;SDS011;10958;50.892;3.992;2023-06-22T08:57:37;23.80;;;16.83;;
21591;SDS011;10958;50.892;3.992;2023-06-22T09:00:08;24.45;;;17.88;;
21591;SDS011;10958;50.892;3.992;2023-06-22T09:02:42;23.60;;;17.88;;
21591;SDS011;10958;50.892;3.992;2023-06-22T09:05:09;25.10;;;18.75;;
21591;SDS011;10958;50.892;3.992;2023-06-22T09:07:35;27.85;;;19.25;;
21591;SDS011;10958;50.892;3.992;2023-06-22T09:10:01;28.00;;;17.88;;
21591;SDS011;10958;50.892;3.992;2023-06-22T09:12:29;21.90;;;18.43;;
21591;SDS011;10958;50.892;3.992;2023-06-22T09:14:55;26.15;;;19.05;;
21591;SDS011;10958;50.892;3.992;2023-06-22T09:17:22;22.55;;;19.27;;
21591;SDS011;10958;50.892;3.992;2023-06-22T09:19:48;22.70;;;17.80;;
21591;SDS011;10958;50.892;3.992;2023-06-22T09:22:14;24.77;;;18.20;;
21591;SDS011;10958;50.892;3.992;2023-06-22T09:24:40;23.40;;;18.42;;
21591;SDS011;10958;50.892;3.992;2023-06-22T09:27:06;21.98;;;18.27;;
21591;SDS011;10958;50.892;3.992;2023-06-22T09:29:32;24.33;;;18.52;;
21591;SDS011;10958;50.892;3.992;2023-06-22T09:32:00;23.17;;;20.15;;
21591;SDS011;10958;50.892;3.992;2023-06-22T09:34:26;24.65;;;19.23;;
21591;SDS011;10958;50.892;3.992;2023-06-22T09:36:53;23.00;;;19.58;;
21591;SDS011;10958;50.892;3.992;2023-06-22T09:39:19;31.23;;;22.15;;
21591;SDS011;10958;50.892;3.992;2023-06-22T09:41:47;28.85;;;20.25;;
21591;SDS011;10958;50.892;3.992;2023-06-22T09:44:13;29.02;;;20.67;;
21591;SDS011;10958;50.892;3.992;2023-06-22T09:46:39;31.42;;;21.27;;
21591;SDS011;10958;50.892;3.992;2023-06-22T09:49:04;28.35;;;21.05;;
21591;SDS011;10958;50.892;3.992;2023-06-22T09:51:30;29.92;;;21.05;;
21591;SDS011;10958;50.892;3.992;2023-06-22T09:53:58;29.35;;;21.63;;
21591;SDS011;10958;50.892;3.992;2023-06-22T09:56:24;28.95;;;21.13;;
21591;SDS011;10958;50.892;3.992;2023-06-22T09:58:53;28.13;;;22.52;;
21591;SDS011;10958;50.892;3.992;2023-06-22T10:01:21;28.17;;;23.52;;
21591;SDS011;10958;50.892;3.992;2023-06-22T10:03:47;27.08;;;21.80;;
21591;SDS011;10958;50.892;3.992;2023-06-22T10:06:13;26.05;;;21.27;;
21591;SDS011;10958;50.892;3.992;2023-06-22T10:08:39;26.60;;;22.02;;
21591;SDS011;10958;50.892;3.992;2023-06-22T10:11:05;30.90;;;22.90;;
21591;SDS011;10958;50.892;3.992;2023-06-22T10:13:31;26.48;;;22.33;;
21591;SDS011;10958;50.892;3.992;2023-06-22T10:16:02;30.27;;;22.95;;
21591;SDS011;10958;50.892;3.992;2023-06-22T10:18:28;29.05;;;23.08;;
21591;SDS011;10958;50.892;3.992;2023-06-22T10:20:57;26.70;;;23.05;;
21591;SDS011;10958;50.892;3.992;2023-06-22T10:23:22;28.23;;;23.52;;
21591;SDS011;10958;50.892;3.992;2023-06-22T10:25:51;27.45;;;23.20;;
21591;SDS011;10958;50.892;3.992;2023-06-22T10:28:16;26.80;;;23.75;;
21591;SDS011;10958;50.892;3.992;2023-06-22T10:30:42;29.15;;;22.98;;
21591;SDS011;10958;50.892;3.992;2023-06-22T10:33:09;28.30;;;20.27;;
21591;SDS011;10958;50.892;3.992;2023-06-22T10:35:36;24.65;;;19.30;;
21591;SDS011;10958;50.892;3.992;2023-06-22T10:38:05;24.00;;;19.10;;
21591;SDS011;10958;50.892;3.992;2023-06-22T10:40:31;19.02;;;16.95;;
21591;SDS011;10958;50.892;3.992;2023-06-22T10:42:57;19.80;;;15.10;;
21591;SDS011;10958;50.892;3.992;2023-06-22T10:45:26;21.08;;;14.80;;
21591;SDS011;10958;50.892;3.992;2023-06-22T10:47:52;18.77;;;14.73;;
21591;SDS011;10958;50.892;3.992;2023-06-22T10:50:18;19.00;;;15.15;;
21591;SDS011;10958;50.892;3.992;2023-06-22T10:52:45;18.95;;;15.35;;
21591;SDS011;10958;50.892;3.992;2023-06-22T10:55:11;20.83;;;16.08;;
21591;SDS011;10958;50.892;3.992;2023-06-22T10:57:39;22.50;;;15.77;;
21591;SDS011;10958;50.892;3.992;2023-06-22T11:00:08;22.17;;;16.48;;
21591;SDS011;10958;50.892;3.992;2023-06-22T11:02:34;23.08;;;17.25;;
21591;SDS011;10958;50.892;3.992;2023-06-22T11:05:00;22.05;;;17.48;;
21591;SDS011;10958;50.892;3.992;2023-06-22T11:07:26;22.20;;;18.00;;
21591;SDS011;10958;50.892;3.992;2023-06-22T11:09:56;23.08;;;19.23;;
21591;SDS011;10958;50.892;3.992;2023-06-22T11:12:21;22.08;;;17.63;;
21591;SDS011;10958;50.892;3.992;2023-06-22T11:14:50;19.73;;;17.60;;
21591;SDS011;10958;50.892;3.992;2023-06-22T11:17:16;20.45;;;16.92;;
21591;SDS011;10958;50.892;3.992;2023-06-22T11:19:43;20.55;;;16.98;;
21591;SDS011;10958;50.892;3.992;2023-06-22T11:22:09;22.23;;;15.65;;
21591;SDS011;10958;50.892;3.992;2023-06-22T11:24:40;19.77;;;15.93;;
21591;SDS011;10958;50.892;3.992;2023-06-22T11:27:05;18.77;;;16.52;;
21591;SDS011;10958;50.892;3.992;2023-06-22T11:29:34;21.75;;;17.52;;
21591;SDS011;10958;50.892;3.992;2023-06-22T11:32:05;21.30;;;16.10;;
21591;SDS011;10958;50.892;3.992;2023-06-22T11:34:32;21.27;;;17.80;;
21591;SDS011;10958;50.892;3.992;2023-06-22T11:36:57;20.58;;;17.13;;
21591;SDS011;10958;50.892;3.992;2023-06-22T11:39:23;20.17;;;18.02;;
21591;SDS011;10958;50.892;3.992;2023-06-22T11:41:49;24.20;;;19.65;;
21591;SDS011;10958;50.892;3.992;2023-06-22T11:44:15;21.70;;;18.60;;
21591;SDS011;10958;50.892;3.992;2023-06-22T11:46:40;20.33;;;18.13;;
21591;SDS011;10958;50.892;3.992;2023-06-22T11:49:06;22.80;;;18.75;;
21591;SDS011;10958;50.892;3.992;2023-06-22T11:51:33;25.33;;;19.05;;
21591;SDS011;10958;50.892;3.992;2023-06-22T11:54:01;20.67;;;16.85;;
21591;SDS011;10958;50.892;3.992;2023-06-22T11:56:28;19.25;;;15.10;;
21591;SDS011;10958;50.892;3.992;2023-06-22T11:58:57;19.00;;;14.65;;
21591;SDS011;10958;50.892;3.992;2023-06-22T12:01:23;18.25;;;15.48;;
21591;SDS011;10958;50.892;3.992;2023-06-22T12:03:49;19.52;;;14.48;;
21591;SDS011;10958;50.892;3.992;2023-06-22T12:06:15;16.63;;;14.27;;
21591;SDS011;10958;50.892;3.992;2023-06-22T12:08:41;17.02;;;13.75;;
21591;SDS011;10958;50.892;3.992;2023-06-22T12:11:07;15.98;;;13.02;;
21591;SDS011;10958;50.892;3.992;2023-06-22T12:13:33;16.92;;;13.32;;
21591;SDS011;10958;50.892;3.992;2023-06-22T12:16:04;15.60;;;13.77;;
21591;SDS011;10958;50.892;3.992;2023-06-22T12:18:32;15.48;;;13.52;;
21591;SDS011;10958;50.892;3.992;2023-06-22T12:20:58;19.63;;;14.65;;
21591;SDS011;10958;50.892;3.992;2023-06-22T12:23:24;18.85;;;14.65;;
21591;SDS011;10958;50.892;3.992;2023-06-22T12:25:50;17.25;;;14.75;;
21591;SDS011;10958;50.892;3.992;2023-06-22T12:28:16;17.35;;;15.35;;
21591;SDS011;10958;50.892;3.992;2023-06-22T12:30:42;18.98;;;16.58;;
21591;SDS011;10958;50.892;3.992;2023-06-22T12:33:08;17.75;;;15.20;;
21591;SDS011;10958;50.892;3.992;2023-06-22T12:35:34;20.35;;;16.35;;
21591;SDS011;10958;50.892;3.992;2023-06-22T12:38:03;19.27;;;16.77;;
21591;SDS011;10958;50.892;3.992;2023-06-22T12:40:31;20.48;;;16.75;;
21591;SDS011;10958;50.892;3.992;2023-06-22T12:42:58;20.25;;;17.05;;
21591;SDS011;10958;50.892;3.992;2023-06-22T12:45:24;20.33;;;16.95;;
21591;SDS011;10958;50.892;3.992;2023-06-22T12:47:53;21.58;;;15.55;;
21591;SDS011;10958;50.892;3.992;2023-06-22T12:50:20;20.88;;;15.10;;
21591;SDS011;10958;50.892;3.992;2023-06-22T12:52:46;17.00;;;14.23;;
21591;SDS011;10958;50.892;3.992;2023-06-22T12:55:14;14.27;;;11.93;;
21591;SDS011;10958;50.892;3.992;2023-06-22T12:57:39;16.20;;;12.27;;
21591;SDS011;10958;50.892;3.992;2023-06-22T13:00:08;18.57;;;12.20;;
21591;SDS011;10958;50.892;3.992;2023-06-22T13:02:37;15.30;;;12.02;;
21591;SDS011;10958;50.892;3.992;2023-06-22T13:05:02;16.27;;;11.98;;
21591;SDS011;10958;50.892;3.992;2023-06-22T13:07:51;13.68;;;10.98;;
21591;SDS011;10958;50.892;3.992;2023-06-22T13:10:17;16.98;;;12.45;;
21591;SDS011;10958;50.892;3.992;2023-06-22T13:14:54;17.55;;;13.23;;
21591;SDS011;10958;50.892;3.992;2023-06-22T13:17:23;16.90;;;12.88;;
21591;SDS011;10958;50.892;3.992;2023-06-22T13:19:49;16.80;;;13.30;;
21591;SDS011;10958;50.892;3.992;2023-06-22T13:22:35;17.95;;;13.85;;
21591;SDS011;10958;50.892;3.992;2023-06-22T13:25:09;17.20;;;14.32;;
21591;SDS011;10958;50.892;3.992;2023-06-22T13:27:41;16.67;;;13.90;;
21591;SDS011;10958;50.892;3.992;2023-06-22T13:30:07;19.00;;;15.02;;
21591;SDS011;10958;50.892;3.992;2023-06-22T13:32:33;20.42;;;15.40;;
21591;SDS011;10958;50.892;3.992;2023-06-22T13:35:00;20.45;;;15.48;;
21591;SDS011;10958;50.892;3.992;2023-06-22T13:37:26;22.48;;;16.20;;
21591;SDS011;10958;50.892;3.992;2023-06-22T13:39:52;22.63;;;15.95;;
21591;SDS011;10958;50.892;3.992;2023-06-22T13:42:18;20.02;;;16.17;;
21591;SDS011;10958;50.892;3.992;2023-06-22T13:44:43;20.95;;;17.05;;
21591;SDS011;10958;50.892;3.992;2023-06-22T13:47:12;19.40;;;16.10;;
21591;SDS011;10958;50.892;3.992;2023-06-22T13:49:38;20.55;;;15.88;;
21591;SDS011;10958;50.892;3.992;2023-06-22T13:52:04;20.35;;;17.02;;
21591;SDS011;10958;50.892;3.992;2023-06-22T13:54:31;21.42;;;17.70;;
21591;SDS011;10958;50.892;3.992;2023-06-22T13:56:58;20.00;;;16.90;;
21591;SDS011;10958;50.892;3.992;2023-06-22T13:59:23;20.27;;;16.25;;
21591;SDS011;10958;50.892;3.992;2023-06-22T14:01:51;20.02;;;16.98;;
21591;SDS011;10958;50.892;3.992;2023-06-22T14:06:46;18.98;;;16.15;;
21591;SDS011;10958;50.892;3.992;2023-06-22T14:09:12;18.65;;;15.32;;
21591;SDS011;10958;50.892;3.992;2023-06-22T14:11:38;23.23;;;17.25;;
21591;SDS011;10958;50.892;3.992;2023-06-22T14:14:03;21.38;;;16.67;;
21591;SDS011;10958;50.892;3.992;2023-06-22T14:16:29;19.13;;;15.35;;
21591;SDS011;10958;50.892;3.992;2023-06-22T14:18:55;20.35;;;15.82;;
21591;SDS011;10958;50.892;3.992;2023-06-22T14:21:21;20.35;;;15.85;;
21591;SDS011;10958;50.892;3.992;2023-06-22T14:23:47;21.02;;;16.60;;
21591;SDS011;10958;50.892;3.992;2023-06-22T14:26:15;21.80;;;16.23;;
21591;SDS011;10958;50.892;3.992;2023-06-22T14:28:47;18.35;;;15.90;;
21591;SDS011;10958;50.892;3.992;2023-06-22T14:31:15;22.70;;;16.83;;
21591;SDS011;10958;50.892;3.992;2023-06-22T14:33:48;22.55;;;17.90;;
21591;SDS011;10958;50.892;3.992;2023-06-22T14:36:15;22.35;;;17.45;;
21591;SDS011;10958;50.892;3.992;2023-06-22T14:38:42;23.95;;;18.42;;
21591;SDS011;10958;50.892;3.992;2023-06-22T14:41:07;22.45;;;17.85;;
21591;SDS011;10958;50.892;3.992;2023-06-22T14:43:33;23.02;;;18.23;;
21591;SDS011;10958;50.892;3.992;2023-06-22T14:45:59;24.23;;;19.85;;
21591;SDS011;10958;50.892;3.992;2023-06-22T14:48:25;24.15;;;19.90;;
21591;SDS011;10958;50.892;3.992;2023-06-22T14:50:51;22.20;;;18.55;;